sensor_id;sensor_type;location;lat;lon;timestamp;P1;durP1;ratioP1;P2;durP2;ratioP2
69527;SDS011;57136;51.986;4.468;2022-12-10T00:02:03;80.63;;;23.38;;
69527;SDS011;57136;51.986;4.468;2022-12-10T00:04:30;77.35;;;22.67;;
69527;SDS011;57136;51.986;4.468;2022-12-10T00:06:56;76.80;;;23.60;;
69527;SDS011;57136;51.986;4.468;2022-12-10T00:09:27;73.55;;;23.88;;
69527;SDS011;57136;51.986;4.468;2022-12-10T00:12:03;83.75;;;25.55;;
69527;SDS011;57136;51.986;4.468;2022-12-10T00:14:47;83.25;;;26.15;;
69527;SDS011;57136;51.986;4.468;2022-12-10T00:24:06;81.68;;;25.70;;
69527;SDS011;57136;51.986;4.468;2022-12-10T00:26:36;86.38;;;25.65;;
69527;SDS011;57136;51.986;4.468;2022-12-10T00:29:05;85.60;;;26.25;;
69527;SDS011;57136;51.986;4.468;2022-12-10T00:31:38;84.40;;;25.75;;
69527;SDS011;57136;51.986;4.468;2022-12-10T00:37:32;74.30;;;23.67;;
69527;SDS011;57136;51.986;4.468;2022-12-10T00:40:09;73.15;;;24.17;;
69527;SDS011;57136;51.986;4.468;2022-12-10T00:42:40;84.05;;;24.48;;
69527;SDS011;57136;51.986;4.468;2022-12-10T00:48:04;82.23;;;25.20;;
69527;SDS011;57136;51.986;4.468;2022-12-10T00:50:31;84.35;;;25.85;;
69527;SDS011;57136;51.986;4.468;2022-12-10T00:52:58;81.72;;;26.60;;
69527;SDS011;57136;51.986;4.468;2022-12-10T00:55:37;77.78;;;23.38;;
69527;SDS011;57136;51.986;4.468;2022-12-10T00:58:07;80.32;;;24.85;;
69527;SDS011;57136;51.986;4.468;2022-12-10T01:00:36;86.93;;;24.40;;
69527;SDS011;57136;51.986;4.468;2022-12-10T01:03:37;83.15;;;24.05;;
69527;SDS011;57136;51.986;4.468;2022-12-10T01:09:51;77.57;;;24.95;;
69527;SDS011;57136;51.986;4.468;2022-12-10T01:14:48;72.43;;;21.15;;
69527;SDS011;57136;51.986;4.468;2022-12-10T01:17:14;70.05;;;23.73;;
69527;SDS011;57136;51.986;4.468;2022-12-10T01:19:39;85.88;;;25.92;;
69527;SDS011;57136;51.986;4.468;2022-12-10T01:22:12;85.88;;;25.88;;
69527;SDS011;57136;51.986;4.468;2022-12-10T01:24:54;82.85;;;26.08;;
69527;SDS011;57136;51.986;4.468;2022-12-10T01:27:33;89.38;;;30.60;;
69527;SDS011;57136;51.986;4.468;2022-12-10T01:30:00;83.45;;;26.92;;
69527;SDS011;57136;51.986;4.468;2022-12-10T01:32:27;88.03;;;28.00;;
69527;SDS011;57136;51.986;4.468;2022-12-10T01:34:53;77.43;;;24.38;;
69527;SDS011;57136;51.986;4.468;2022-12-10T01:37:19;87.80;;;27.50;;
69527;SDS011;57136;51.986;4.468;2022-12-10T01:39:44;77.82;;;26.85;;
69527;SDS011;57136;51.986;4.468;2022-12-10T01:42:12;87.68;;;27.63;;
69527;SDS011;57136;51.986;4.468;2022-12-10T01:47:07;79.95;;;24.70;;
69527;SDS011;57136;51.986;4.468;2022-12-10T01:49:35;76.15;;;26.38;;
69527;SDS011;57136;51.986;4.468;2022-12-10T01:52:04;80.75;;;26.38;;
69527;SDS011;57136;51.986;4.468;2022-12-10T01:54:33;83.60;;;26.33;;
69527;SDS011;57136;51.986;4.468;2022-12-10T01:57:07;97.57;;;28.73;;
69527;SDS011;57136;51.986;4.468;2022-12-10T01:59:35;85.97;;;26.85;;
69527;SDS011;57136;51.986;4.468;2022-12-10T02:02:10;74.70;;;26.45;;
69527;SDS011;57136;51.986;4.468;2022-12-10T02:07:28;75.65;;;26.38;;
69527;SDS011;57136;51.986;4.468;2022-12-10T02:12:47;87.20;;;25.08;;
69527;SDS011;57136;51.986;4.468;2022-12-10T02:15:30;84.72;;;27.77;;
69527;SDS011;57136;51.986;4.468;2022-12-10T02:18:05;88.28;;;28.40;;
69527;SDS011;57136;51.986;4.468;2022-12-10T02:20:40;87.95;;;26.10;;
69527;SDS011;57136;51.986;4.468;2022-12-10T02:23:15;75.60;;;26.17;;
69527;SDS011;57136;51.986;4.468;2022-12-10T02:29:18;88.20;;;26.08;;
69527;SDS011;57136;51.986;4.468;2022-12-10T02:31:52;106.47;;;25.83;;
69527;SDS011;57136;51.986;4.468;2022-12-10T02:34:28;104.97;;;26.92;;
69527;SDS011;57136;51.986;4.468;2022-12-10T02:36:57;126.43;;;28.85;;
69527;SDS011;57136;51.986;4.468;2022-12-10T02:39:31;90.47;;;25.85;;
69527;SDS011;57136;51.986;4.468;2022-12-10T02:42:04;86.68;;;24.75;;
69527;SDS011;57136;51.986;4.468;2022-12-10T02:44:33;89.85;;;24.73;;
69527;SDS011;57136;51.986;4.468;2022-12-10T02:47:03;126.93;;;28.55;;
69527;SDS011;57136;51.986;4.468;2022-12-10T02:49:30;94.47;;;27.60;;
69527;SDS011;57136;51.986;4.468;2022-12-10T02:51:56;115.20;;;27.80;;
69527;SDS011;57136;51.986;4.468;2022-12-10T02:54:33;91.70;;;26.77;;
69527;SDS011;57136;51.986;4.468;2022-12-10T03:00:13;94.43;;;26.25;;
69527;SDS011;57136;51.986;4.468;2022-12-10T03:11:37;102.30;;;25.58;;
69527;SDS011;57136;51.986;4.468;2022-12-10T03:14:08;144.52;;;28.42;;
69527;SDS011;57136;51.986;4.468;2022-12-10T03:16:48;109.85;;;25.20;;
69527;SDS011;57136;51.986;4.468;2022-12-10T03:19:18;96.97;;;25.20;;
69527;SDS011;57136;51.986;4.468;2022-12-10T03:21:48;111.68;;;23.98;;
69527;SDS011;57136;51.986;4.468;2022-12-10T03:24:17;118.60;;;23.95;;
69527;SDS011;57136;51.986;4.468;2022-12-10T03:26:44;107.18;;;25.70;;
69527;SDS011;57136;51.986;4.468;2022-12-10T03:29:19;131.13;;;25.20;;
69527;SDS011;57136;51.986;4.468;2022-12-10T03:31:48;125.47;;;26.13;;
69527;SDS011;57136;51.986;4.468;2022-12-10T03:34:16;155.27;;;26.02;;
69527;SDS011;57136;51.986;4.468;2022-12-10T03:36:42;111.00;;;23.38;;
69527;SDS011;57136;51.986;4.468;2022-12-10T03:39:09;106.43;;;23.40;;
69527;SDS011;57136;51.986;4.468;2022-12-10T03:41:35;137.88;;;26.55;;
69527;SDS011;57136;51.986;4.468;2022-12-10T03:44:04;179.18;;;29.83;;
69527;SDS011;57136;51.986;4.468;2022-12-10T03:46:30;127.30;;;24.55;;
69527;SDS011;57136;51.986;4.468;2022-12-10T03:48:58;165.38;;;28.13;;
69527;SDS011;57136;51.986;4.468;2022-12-10T03:51:25;125.70;;;24.35;;
69527;SDS011;57136;51.986;4.468;2022-12-10T03:53:51;126.10;;;25.92;;
69527;SDS011;57136;51.986;4.468;2022-12-10T03:56:17;171.18;;;26.23;;
69527;SDS011;57136;51.986;4.468;2022-12-10T03:58:43;127.10;;;26.15;;
69527;SDS011;57136;51.986;4.468;2022-12-10T04:01:09;127.43;;;25.33;;
69527;SDS011;57136;51.986;4.468;2022-12-10T04:03:36;104.68;;;23.50;;
69527;SDS011;57136;51.986;4.468;2022-12-10T04:06:04;146.15;;;27.27;;
69527;SDS011;57136;51.986;4.468;2022-12-10T04:08:31;135.77;;;27.42;;
69527;SDS011;57136;51.986;4.468;2022-12-10T04:11:07;122.00;;;25.55;;
69527;SDS011;57136;51.986;4.468;2022-12-10T04:13:37;140.55;;;27.30;;
69527;SDS011;57136;51.986;4.468;2022-12-10T04:16:22;130.63;;;24.63;;
69527;SDS011;57136;51.986;4.468;2022-12-10T04:19:14;107.75;;;26.77;;
69527;SDS011;57136;51.986;4.468;2022-12-10T04:21:40;74.72;;;25.40;;
69527;SDS011;57136;51.986;4.468;2022-12-10T04:24:26;89.95;;;24.45;;
69527;SDS011;57136;51.986;4.468;2022-12-10T04:29:47;90.47;;;24.88;;
69527;SDS011;57136;51.986;4.468;2022-12-10T04:32:13;118.07;;;25.65;;
69527;SDS011;57136;51.986;4.468;2022-12-10T04:34:40;91.90;;;24.92;;
69527;SDS011;57136;51.986;4.468;2022-12-10T04:37:06;114.43;;;25.90;;
69527;SDS011;57136;51.986;4.468;2022-12-10T04:39:32;112.75;;;26.17;;
69527;SDS011;57136;51.986;4.468;2022-12-10T04:41:59;119.60;;;25.40;;
69527;SDS011;57136;51.986;4.468;2022-12-10T04:44:26;112.15;;;25.02;;
69527;SDS011;57136;51.986;4.468;2022-12-10T04:46:52;108.63;;;26.75;;
69527;SDS011;57136;51.986;4.468;2022-12-10T04:49:18;95.40;;;25.13;;
69527;SDS011;57136;51.986;4.468;2022-12-10T04:51:44;102.72;;;25.85;;
69527;SDS011;57136;51.986;4.468;2022-12-10T04:54:10;95.53;;;24.40;;
69527;SDS011;57136;51.986;4.468;2022-12-10T04:56:37;95.22;;;25.33;;
69527;SDS011;57136;51.986;4.468;2022-12-10T04:59:03;99.55;;;24.10;;
69527;SDS011;57136;51.986;4.468;2022-12-10T05:01:29;110.72;;;25.20;;
69527;SDS011;57136;51.986;4.468;2022-12-10T05:03:57;76.45;;;24.05;;
69527;SDS011;57136;51.986;4.468;2022-12-10T05:06:38;101.35;;;25.05;;
69527;SDS011;57136;51.986;4.468;2022-12-10T05:09:04;101.00;;;25.30;;
69527;SDS011;57136;51.986;4.468;2022-12-10T05:11:31;107.57;;;24.08;;
69527;SDS011;57136;51.986;4.468;2022-12-10T05:13:58;121.65;;;25.63;;
69527;SDS011;57136;51.986;4.468;2022-12-10T05:16:25;97.75;;;24.73;;
69527;SDS011;57136;51.986;4.468;2022-12-10T05:18:53;117.18;;;26.25;;
69527;SDS011;57136;51.986;4.468;2022-12-10T05:21:20;109.65;;;26.88;;
69527;SDS011;57136;51.986;4.468;2022-12-10T05:23:48;93.03;;;24.00;;
69527;SDS011;57136;51.986;4.468;2022-12-10T05:26:20;140.65;;;25.83;;
69527;SDS011;57136;51.986;4.468;2022-12-10T05:28:55;118.60;;;25.05;;
69527;SDS011;57136;51.986;4.468;2022-12-10T05:31:22;155.02;;;27.02;;
69527;SDS011;57136;51.986;4.468;2022-12-10T05:33:54;150.88;;;25.80;;
69527;SDS011;57136;51.986;4.468;2022-12-10T05:36:22;87.43;;;23.15;;
69527;SDS011;57136;51.986;4.468;2022-12-10T05:38:49;158.55;;;25.98;;
69527;SDS011;57136;51.986;4.468;2022-12-10T05:41:19;100.13;;;23.02;;
69527;SDS011;57136;51.986;4.468;2022-12-10T05:43:48;118.30;;;22.95;;
69527;SDS011;57136;51.986;4.468;2022-12-10T05:46:18;110.20;;;24.65;;
69527;SDS011;57136;51.986;4.468;2022-12-10T05:48:49;135.02;;;24.38;;
69527;SDS011;57136;51.986;4.468;2022-12-10T05:51:20;114.95;;;22.85;;
69527;SDS011;57136;51.986;4.468;2022-12-10T05:53:48;143.90;;;23.35;;
69527;SDS011;57136;51.986;4.468;2022-12-10T05:56:20;134.48;;;21.88;;
69527;SDS011;57136;51.986;4.468;2022-12-10T05:58:48;104.82;;;22.25;;
69527;SDS011;57136;51.986;4.468;2022-12-10T06:01:17;139.05;;;22.98;;
69527;SDS011;57136;51.986;4.468;2022-12-10T06:03:45;100.85;;;21.23;;
69527;SDS011;57136;51.986;4.468;2022-12-10T06:06:12;108.30;;;19.77;;
69527;SDS011;57136;51.986;4.468;2022-12-10T06:08:38;120.10;;;21.70;;
69527;SDS011;57136;51.986;4.468;2022-12-10T06:11:06;98.85;;;19.90;;
69527;SDS011;57136;51.986;4.468;2022-12-10T06:13:37;98.00;;;22.10;;
69527;SDS011;57136;51.986;4.468;2022-12-10T06:16:04;80.03;;;19.50;;
69527;SDS011;57136;51.986;4.468;2022-12-10T06:18:31;112.38;;;20.60;;
69527;SDS011;57136;51.986;4.468;2022-12-10T06:20:56;106.55;;;21.40;;
69527;SDS011;57136;51.986;4.468;2022-12-10T06:23:22;83.65;;;18.85;;
69527;SDS011;57136;51.986;4.468;2022-12-10T06:25:48;86.03;;;18.08;;
69527;SDS011;57136;51.986;4.468;2022-12-10T06:28:15;89.28;;;20.30;;
69527;SDS011;57136;51.986;4.468;2022-12-10T06:30:42;116.35;;;22.25;;
69527;SDS011;57136;51.986;4.468;2022-12-10T06:33:11;61.70;;;17.35;;
69527;SDS011;57136;51.986;4.468;2022-12-10T06:35:37;68.28;;;18.48;;
69527;SDS011;57136;51.986;4.468;2022-12-10T06:38:04;78.40;;;19.85;;
69527;SDS011;57136;51.986;4.468;2022-12-10T06:40:30;81.63;;;20.08;;
69527;SDS011;57136;51.986;4.468;2022-12-10T06:42:56;73.22;;;19.40;;
69527;SDS011;57136;51.986;4.468;2022-12-10T06:45:22;73.57;;;19.23;;
69527;SDS011;57136;51.986;4.468;2022-12-10T06:47:48;75.63;;;18.48;;
69527;SDS011;57136;51.986;4.468;2022-12-10T06:50:17;77.30;;;20.63;;
69527;SDS011;57136;51.986;4.468;2022-12-10T06:52:42;69.25;;;19.75;;
69527;SDS011;57136;51.986;4.468;2022-12-10T06:55:08;73.97;;;20.30;;
69527;SDS011;57136;51.986;4.468;2022-12-10T06:57:35;60.38;;;19.35;;
69527;SDS011;57136;51.986;4.468;2022-12-10T07:00:05;75.53;;;20.63;;
69527;SDS011;57136;51.986;4.468;2022-12-10T07:02:31;82.50;;;21.40;;
69527;SDS011;57136;51.986;4.468;2022-12-10T07:04:59;77.63;;;22.48;;
69527;SDS011;57136;51.986;4.468;2022-12-10T07:07:28;81.88;;;21.15;;
69527;SDS011;57136;51.986;4.468;2022-12-10T07:09:54;60.58;;;19.15;;
69527;SDS011;57136;51.986;4.468;2022-12-10T07:12:21;87.43;;;22.35;;
69527;SDS011;57136;51.986;4.468;2022-12-10T07:14:46;66.07;;;19.58;;
69527;SDS011;57136;51.986;4.468;2022-12-10T07:17:12;74.43;;;19.98;;
69527;SDS011;57136;51.986;4.468;2022-12-10T07:19:37;61.17;;;19.70;;
69527;SDS011;57136;51.986;4.468;2022-12-10T07:22:03;67.88;;;21.20;;
69527;SDS011;57136;51.986;4.468;2022-12-10T07:24:28;70.95;;;20.17;;
69527;SDS011;57136;51.986;4.468;2022-12-10T07:26:54;81.60;;;21.67;;
69527;SDS011;57136;51.986;4.468;2022-12-10T07:29:20;65.07;;;21.58;;
69527;SDS011;57136;51.986;4.468;2022-12-10T07:31:47;67.97;;;22.00;;
69527;SDS011;57136;51.986;4.468;2022-12-10T07:34:13;71.68;;;20.80;;
69527;SDS011;57136;51.986;4.468;2022-12-10T07:36:39;71.22;;;23.77;;
69527;SDS011;57136;51.986;4.468;2022-12-10T07:39:06;76.63;;;21.60;;
69527;SDS011;57136;51.986;4.468;2022-12-10T07:41:33;67.25;;;21.40;;
69527;SDS011;57136;51.986;4.468;2022-12-10T07:44:04;60.75;;;20.58;;
69527;SDS011;57136;51.986;4.468;2022-12-10T07:46:31;71.90;;;21.65;;
69527;SDS011;57136;51.986;4.468;2022-12-10T07:49:04;81.60;;;23.92;;
69527;SDS011;57136;51.986;4.468;2022-12-10T07:54:30;59.40;;;20.38;;
69527;SDS011;57136;51.986;4.468;2022-12-10T07:57:52;56.45;;;18.70;;
69527;SDS011;57136;51.986;4.468;2022-12-10T08:00:18;70.65;;;21.67;;
69527;SDS011;57136;51.986;4.468;2022-12-10T08:02:47;89.00;;;23.23;;
69527;SDS011;57136;51.986;4.468;2022-12-10T08:05:17;72.10;;;21.85;;
69527;SDS011;57136;51.986;4.468;2022-12-10T08:07:43;68.13;;;21.08;;
69527;SDS011;57136;51.986;4.468;2022-12-10T08:10:08;63.25;;;22.40;;
69527;SDS011;57136;51.986;4.468;2022-12-10T08:12:35;68.72;;;22.08;;
69527;SDS011;57136;51.986;4.468;2022-12-10T08:15:04;83.65;;;23.55;;
69527;SDS011;57136;51.986;4.468;2022-12-10T08:17:39;90.65;;;22.85;;
69527;SDS011;57136;51.986;4.468;2022-12-10T08:20:06;72.20;;;24.90;;
69527;SDS011;57136;51.986;4.468;2022-12-10T08:22:33;77.53;;;23.63;;
69527;SDS011;57136;51.986;4.468;2022-12-10T08:25:08;67.65;;;24.38;;
69527;SDS011;57136;51.986;4.468;2022-12-10T08:27:45;72.80;;;23.30;;
69527;SDS011;57136;51.986;4.468;2022-12-10T08:30:16;85.10;;;23.80;;
69527;SDS011;57136;51.986;4.468;2022-12-10T08:32:50;75.45;;;22.75;;
69527;SDS011;57136;51.986;4.468;2022-12-10T08:35:24;68.13;;;22.75;;
69527;SDS011;57136;51.986;4.468;2022-12-10T08:37:50;74.60;;;22.95;;
69527;SDS011;57136;51.986;4.468;2022-12-10T08:40:17;72.90;;;22.00;;
69527;SDS011;57136;51.986;4.468;2022-12-10T08:43:06;71.93;;;22.90;;
69527;SDS011;57136;51.986;4.468;2022-12-10T08:45:41;72.20;;;22.75;;
69527;SDS011;57136;51.986;4.468;2022-12-10T08:48:07;66.75;;;21.17;;
69527;SDS011;57136;51.986;4.468;2022-12-10T08:50:32;89.63;;;24.77;;
69527;SDS011;57136;51.986;4.468;2022-12-10T08:52:59;75.93;;;23.00;;
69527;SDS011;57136;51.986;4.468;2022-12-10T08:55:28;79.03;;;23.40;;
69527;SDS011;57136;51.986;4.468;2022-12-10T08:57:53;67.32;;;22.05;;
69527;SDS011;57136;51.986;4.468;2022-12-10T09:00:19;65.78;;;21.85;;
69527;SDS011;57136;51.986;4.468;2022-12-10T09:02:45;70.13;;;21.85;;
69527;SDS011;57136;51.986;4.468;2022-12-10T09:05:11;55.17;;;19.52;;
69527;SDS011;57136;51.986;4.468;2022-12-10T09:07:37;71.07;;;21.15;;
69527;SDS011;57136;51.986;4.468;2022-12-10T09:10:03;66.78;;;22.13;;
69527;SDS011;57136;51.986;4.468;2022-12-10T09:12:32;68.93;;;22.27;;
69527;SDS011;57136;51.986;4.468;2022-12-10T09:14:58;81.35;;;24.85;;
69527;SDS011;57136;51.986;4.468;2022-12-10T09:17:24;75.10;;;21.42;;
69527;SDS011;57136;51.986;4.468;2022-12-10T09:19:50;76.22;;;21.40;;
69527;SDS011;57136;51.986;4.468;2022-12-10T09:22:16;82.22;;;24.08;;
69527;SDS011;57136;51.986;4.468;2022-12-10T09:24:41;83.82;;;23.60;;
69527;SDS011;57136;51.986;4.468;2022-12-10T09:27:07;61.80;;;20.35;;
69527;SDS011;57136;51.986;4.468;2022-12-10T09:29:33;57.72;;;20.95;;
69527;SDS011;57136;51.986;4.468;2022-12-10T09:31:58;77.78;;;21.38;;
69527;SDS011;57136;51.986;4.468;2022-12-10T09:34:24;76.35;;;21.77;;
69527;SDS011;57136;51.986;4.468;2022-12-10T09:36:50;70.90;;;20.77;;
69527;SDS011;57136;51.986;4.468;2022-12-10T09:39:16;59.63;;;20.23;;
69527;SDS011;57136;51.986;4.468;2022-12-10T09:41:51;78.53;;;22.13;;
69527;SDS011;57136;51.986;4.468;2022-12-10T09:57:37;58.83;;;19.13;;
69527;SDS011;57136;51.986;4.468;2022-12-10T10:02:55;62.50;;;19.80;;
69527;SDS011;57136;51.986;4.468;2022-12-10T10:05:34;59.38;;;19.83;;
69527;SDS011;57136;51.986;4.468;2022-12-10T10:10:54;63.60;;;20.38;;
69527;SDS011;57136;51.986;4.468;2022-12-10T10:16:17;54.85;;;18.42;;
69527;SDS011;57136;51.986;4.468;2022-12-10T10:21:48;59.05;;;20.13;;
69527;SDS011;57136;51.986;4.468;2022-12-10T10:24:16;55.25;;;19.42;;
69527;SDS011;57136;51.986;4.468;2022-12-10T10:26:58;63.92;;;22.88;;
69527;SDS011;57136;51.986;4.468;2022-12-10T10:29:38;60.13;;;22.45;;
69527;SDS011;57136;51.986;4.468;2022-12-10T10:32:17;61.00;;;21.65;;
69527;SDS011;57136;51.986;4.468;2022-12-10T10:34:44;56.97;;;20.05;;
69527;SDS011;57136;51.986;4.468;2022-12-10T10:37:14;67.45;;;22.75;;
69527;SDS011;57136;51.986;4.468;2022-12-10T10:39:46;51.10;;;19.48;;
69527;SDS011;57136;51.986;4.468;2022-12-10T10:42:14;56.28;;;20.25;;
69527;SDS011;57136;51.986;4.468;2022-12-10T10:45:02;49.85;;;19.05;;
69527;SDS011;57136;51.986;4.468;2022-12-10T10:47:48;53.80;;;19.23;;
69527;SDS011;57136;51.986;4.468;2022-12-10T10:50:30;53.95;;;20.33;;
69527;SDS011;57136;51.986;4.468;2022-12-10T10:52:55;56.10;;;20.35;;
69527;SDS011;57136;51.986;4.468;2022-12-10T10:55:30;58.25;;;20.27;;
69527;SDS011;57136;51.986;4.468;2022-12-10T10:58:00;50.30;;;19.45;;
69527;SDS011;57136;51.986;4.468;2022-12-10T11:00:27;52.75;;;19.73;;
69527;SDS011;57136;51.986;4.468;2022-12-10T11:02:53;55.65;;;17.95;;
69527;SDS011;57136;51.986;4.468;2022-12-10T11:05:23;61.13;;;21.55;;
69527;SDS011;57136;51.986;4.468;2022-12-10T11:07:58;51.17;;;19.88;;
69527;SDS011;57136;51.986;4.468;2022-12-10T11:10:27;66.13;;;21.85;;
69527;SDS011;57136;51.986;4.468;2022-12-10T11:13:04;55.00;;;20.23;;
69527;SDS011;57136;51.986;4.468;2022-12-10T11:15:37;58.97;;;20.70;;
69527;SDS011;57136;51.986;4.468;2022-12-10T11:18:29;56.10;;;20.75;;
69527;SDS011;57136;51.986;4.468;2022-12-10T11:21:20;62.00;;;20.92;;
69527;SDS011;57136;51.986;4.468;2022-12-10T11:23:48;58.15;;;19.95;;
69527;SDS011;57136;51.986;4.468;2022-12-10T11:40:28;64.97;;;22.67;;
69527;SDS011;57136;51.986;4.468;2022-12-10T11:51:34;65.85;;;20.77;;
69527;SDS011;57136;51.986;4.468;2022-12-10T12:00:00;59.55;;;20.58;;
69527;SDS011;57136;51.986;4.468;2022-12-10T12:05:35;54.15;;;20.35;;
69527;SDS011;57136;51.986;4.468;2022-12-10T12:10:49;48.72;;;18.08;;
69527;SDS011;57136;51.986;4.468;2022-12-10T12:13:40;48.70;;;18.65;;
69527;SDS011;57136;51.986;4.468;2022-12-10T12:16:15;57.95;;;19.38;;
69527;SDS011;57136;51.986;4.468;2022-12-10T12:18:55;51.47;;;18.20;;
69527;SDS011;57136;51.986;4.468;2022-12-10T12:21:25;51.65;;;20.10;;
69527;SDS011;57136;51.986;4.468;2022-12-10T12:29:37;54.75;;;19.23;;
69527;SDS011;57136;51.986;4.468;2022-12-10T12:35:06;56.53;;;18.98;;
69527;SDS011;57136;51.986;4.468;2022-12-10T12:40:34;51.28;;;19.27;;
69527;SDS011;57136;51.986;4.468;2022-12-10T12:43:11;55.95;;;19.27;;
69527;SDS011;57136;51.986;4.468;2022-12-10T12:45:41;59.13;;;21.70;;
69527;SDS011;57136;51.986;4.468;2022-12-10T12:51:52;59.10;;;18.70;;
69527;SDS011;57136;51.986;4.468;2022-12-10T12:54:14;53.95;;;19.65;;
69527;SDS011;57136;51.986;4.468;2022-12-10T13:02:16;53.78;;;20.00;;
69527;SDS011;57136;51.986;4.468;2022-12-10T13:04:43;52.58;;;18.95;;
69527;SDS011;57136;51.986;4.468;2022-12-10T13:09:47;55.42;;;19.70;;
69527;SDS011;57136;51.986;4.468;2022-12-10T13:23:50;57.78;;;19.80;;
69527;SDS011;57136;51.986;4.468;2022-12-10T13:26:40;62.92;;;19.25;;
69527;SDS011;57136;51.986;4.468;2022-12-10T13:29:27;56.30;;;19.42;;
69527;SDS011;57136;51.986;4.468;2022-12-10T13:32:42;60.88;;;20.90;;
69527;SDS011;57136;51.986;4.468;2022-12-10T13:40:27;48.75;;;18.65;;
69527;SDS011;57136;51.986;4.468;2022-12-10T13:46:34;59.80;;;20.35;;
69527;SDS011;57136;51.986;4.468;2022-12-10T13:49:18;57.90;;;20.65;;
69527;SDS011;57136;51.986;4.468;2022-12-10T14:07:52;58.80;;;19.83;;
69527;SDS011;57136;51.986;4.468;2022-12-10T14:10:22;70.88;;;22.98;;
69527;SDS011;57136;51.986;4.468;2022-12-10T14:12:52;65.68;;;21.65;;
69527;SDS011;57136;51.986;4.468;2022-12-10T14:15:21;59.60;;;21.77;;
69527;SDS011;57136;51.986;4.468;2022-12-10T14:17:50;73.63;;;23.38;;
69527;SDS011;57136;51.986;4.468;2022-12-10T14:20:21;62.90;;;20.50;;
69527;SDS011;57136;51.986;4.468;2022-12-10T14:22:56;74.88;;;23.50;;
69527;SDS011;57136;51.986;4.468;2022-12-10T14:25:42;64.40;;;22.27;;
69527;SDS011;57136;51.986;4.468;2022-12-10T14:28:16;61.22;;;21.38;;
69527;SDS011;57136;51.986;4.468;2022-12-10T14:30:46;68.72;;;22.30;;
69527;SDS011;57136;51.986;4.468;2022-12-10T14:33:21;63.53;;;22.95;;
69527;SDS011;57136;51.986;4.468;2022-12-10T14:35:50;69.95;;;23.35;;
69527;SDS011;57136;51.986;4.468;2022-12-10T14:40:52;58.47;;;20.65;;
69527;SDS011;57136;51.986;4.468;2022-12-10T14:43:38;59.45;;;21.80;;
69527;SDS011;57136;51.986;4.468;2022-12-10T14:46:06;64.32;;;21.60;;
69527;SDS011;57136;51.986;4.468;2022-12-10T14:48:48;64.82;;;22.08;;
69527;SDS011;57136;51.986;4.468;2022-12-10T14:51:16;77.38;;;25.05;;
69527;SDS011;57136;51.986;4.468;2022-12-10T14:53:44;71.70;;;23.25;;
69527;SDS011;57136;51.986;4.468;2022-12-10T14:56:14;68.10;;;22.45;;
69527;SDS011;57136;51.986;4.468;2022-12-10T14:59:04;71.00;;;24.08;;
69527;SDS011;57136;51.986;4.468;2022-12-10T15:01:47;75.43;;;23.45;;
69527;SDS011;57136;51.986;4.468;2022-12-10T15:04:21;72.40;;;23.83;;
69527;SDS011;57136;51.986;4.468;2022-12-10T15:06:59;71.50;;;24.13;;
69527;SDS011;57136;51.986;4.468;2022-12-10T15:09:50;69.97;;;23.58;;
69527;SDS011;57136;51.986;4.468;2022-12-10T15:15:04;84.63;;;23.92;;
69527;SDS011;57136;51.986;4.468;2022-12-10T15:17:40;68.05;;;23.58;;
69527;SDS011;57136;51.986;4.468;2022-12-10T15:20:19;82.30;;;26.83;;
69527;SDS011;57136;51.986;4.468;2022-12-10T15:23:05;75.00;;;24.08;;
69527;SDS011;57136;51.986;4.468;2022-12-10T15:26:00;67.32;;;24.00;;
69527;SDS011;57136;51.986;4.468;2022-12-10T15:28:36;73.45;;;24.10;;
69527;SDS011;57136;51.986;4.468;2022-12-10T15:31:19;79.00;;;23.48;;
69527;SDS011;57136;51.986;4.468;2022-12-10T15:33:58;67.90;;;20.95;;
69527;SDS011;57136;51.986;4.468;2022-12-10T15:36:34;66.90;;;22.83;;
69527;SDS011;57136;51.986;4.468;2022-12-10T15:39:16;72.43;;;25.55;;
69527;SDS011;57136;51.986;4.468;2022-12-10T15:41:51;74.15;;;24.80;;
69527;SDS011;57136;51.986;4.468;2022-12-10T15:47:08;77.95;;;26.20;;
69527;SDS011;57136;51.986;4.468;2022-12-10T15:49:35;89.95;;;25.65;;
69527;SDS011;57136;51.986;4.468;2022-12-10T15:52:04;84.07;;;26.30;;
69527;SDS011;57136;51.986;4.468;2022-12-10T15:54:38;80.78;;;25.65;;
69527;SDS011;57136;51.986;4.468;2022-12-10T15:57:13;76.55;;;25.52;;
69527;SDS011;57136;51.986;4.468;2022-12-10T15:59:44;79.70;;;25.95;;
69527;SDS011;57136;51.986;4.468;2022-12-10T16:04:44;76.72;;;26.67;;
69527;SDS011;57136;51.986;4.468;2022-12-10T16:07:10;85.53;;;25.90;;
69527;SDS011;57136;51.986;4.468;2022-12-10T16:09:36;84.55;;;25.48;;
69527;SDS011;57136;51.986;4.468;2022-12-10T16:12:01;85.32;;;30.05;;
69527;SDS011;57136;51.986;4.468;2022-12-10T16:17:41;82.13;;;26.83;;
69527;SDS011;57136;51.986;4.468;2022-12-10T16:20:48;85.38;;;27.75;;
69527;SDS011;57136;51.986;4.468;2022-12-10T16:23:40;84.47;;;27.80;;
69527;SDS011;57136;51.986;4.468;2022-12-10T16:26:18;79.40;;;27.38;;
69527;SDS011;57136;51.986;4.468;2022-12-10T16:28:51;84.30;;;29.02;;
69527;SDS011;57136;51.986;4.468;2022-12-10T16:31:35;80.97;;;27.50;;
69527;SDS011;57136;51.986;4.468;2022-12-10T16:43:46;77.03;;;25.33;;
69527;SDS011;57136;51.986;4.468;2022-12-10T17:05:47;76.45;;;28.00;;
69527;SDS011;57136;51.986;4.468;2022-12-10T17:08:44;78.40;;;28.30;;
69527;SDS011;57136;51.986;4.468;2022-12-10T17:17:36;76.22;;;26.88;;
69527;SDS011;57136;51.986;4.468;2022-12-10T17:23:30;74.90;;;25.85;;
69527;SDS011;57136;51.986;4.468;2022-12-10T17:30:17;72.68;;;25.20;;
69527;SDS011;57136;51.986;4.468;2022-12-10T17:32:59;74.68;;;26.60;;
69527;SDS011;57136;51.986;4.468;2022-12-10T17:35:28;78.82;;;25.17;;
69527;SDS011;57136;51.986;4.468;2022-12-10T17:37:55;64.07;;;24.95;;
69527;SDS011;57136;51.986;4.468;2022-12-10T17:40:30;61.92;;;23.20;;
69527;SDS011;57136;51.986;4.468;2022-12-10T17:56:52;45.95;;;16.50;;
69527;SDS011;57136;51.986;4.468;2022-12-10T17:59:36;42.22;;;17.63;;
69527;SDS011;57136;51.986;4.468;2022-12-10T18:07:57;42.03;;;17.88;;
69527;SDS011;57136;51.986;4.468;2022-12-10T18:14:11;48.33;;;19.48;;
69527;SDS011;57136;51.986;4.468;2022-12-10T18:16:51;51.00;;;20.75;;
69527;SDS011;57136;51.986;4.468;2022-12-10T18:19:29;56.38;;;22.65;;
69527;SDS011;57136;51.986;4.468;2022-12-10T18:31:01;63.35;;;24.17;;
69527;SDS011;57136;51.986;4.468;2022-12-10T18:33:42;62.10;;;24.00;;
69527;SDS011;57136;51.986;4.468;2022-12-10T18:38:52;63.22;;;24.30;;
69527;SDS011;57136;51.986;4.468;2022-12-10T18:45:06;62.67;;;22.98;;
69527;SDS011;57136;51.986;4.468;2022-12-10T18:47:36;55.40;;;23.30;;
69527;SDS011;57136;51.986;4.468;2022-12-10T18:50:53;55.42;;;22.25;;
69527;SDS011;57136;51.986;4.468;2022-12-10T18:53:52;52.22;;;22.15;;
69527;SDS011;57136;51.986;4.468;2022-12-10T18:56:39;47.92;;;20.00;;
69527;SDS011;57136;51.986;4.468;2022-12-10T18:59:27;42.35;;;17.92;;
69527;SDS011;57136;51.986;4.468;2022-12-10T19:02:09;42.65;;;19.60;;
69527;SDS011;57136;51.986;4.468;2022-12-10T19:04:56;48.13;;;20.23;;
69527;SDS011;57136;51.986;4.468;2022-12-10T19:07:22;46.28;;;19.55;;
69527;SDS011;57136;51.986;4.468;2022-12-10T19:09:55;45.63;;;21.10;;